Time;durP1;ratioP1;P1;durP2;ratioP2;P2;SDS_P1;SDS_P2;PMS_P1;PMS_P2;Temp;Humidity;BMP_temperature;BMP_pressure;BME280_temperature;BME280_humidity;BME280_pressure;Samples;Min_cycle;Max_cycle;Signal;HPM_P1;HPM_P2
2023/09/13 00:00:14;;;;;;;8.05;2.95;;;;;;;;;;5004001;28;20041;-72
2023/09/13 00:02:41;;;;;;;5.85;3.03;;;;;;;;;;5005924;28;20034;-73
2023/09/13 00:05:07;;;;;;;5.72;2.78;;;;;;;;;;5007855;28;20018;-72
2023/09/13 00:07:33;;;;;;;6.05;2.95;;;;;;;;;;5023228;28;20091;-73
2023/09/13 00:10:00;;;;;;;8.48;2.97;;;;;;;;;;5010229;28;20029;-72
2023/09/13 00:12:25;;;;;;;6.55;2.58;;;;;;;;;;5032165;28;20027;-72
2023/09/13 00:14:51;;;;;;;5.72;2.92;;;;;;;;;;5113384;28;20437;-72
2023/09/13 00:17:19;;;;;;;3.88;2.50;;;;;;;;;;5021015;28;20468;-71
2023/09/13 00:19:45;;;;;;;8.00;2.38;;;;;;;;;;5008593;28;20030;-73
2023/09/13 00:22:12;;;;;;;6.93;2.55;;;;;;;;;;5010774;28;20059;-73
2023/09/13 00:24:38;;;;;;;4.03;2.20;;;;;;;;;;5026127;28;20022;-72
2023/09/13 00:27:04;;;;;;;3.78;2.58;;;;;;;;;;5011205;28;20049;-73
2023/09/13 00:29:33;;;;;;;9.13;2.72;;;;;;;;;;4993194;28;20114;-72
2023/09/13 00:32:02;;;;;;;4.55;2.60;;;;;;;;;;5010907;28;20030;-73
2023/09/13 00:34:29;;;;;;;6.65;2.60;;;;;;;;;;5009272;28;20030;-73
2023/09/13 00:36:55;;;;;;;3.97;2.30;;;;;;;;;;5011149;28;20030;-73
2023/09/13 00:39:21;;;;;;;5.63;2.60;;;;;;;;;;5108850;28;20031;-73
2023/09/13 00:41:47;;;;;;;5.40;2.70;;;;;;;;;;5112916;28;20045;-72
2023/09/13 00:44:12;;;;;;;4.75;2.88;;;;;;;;;;5061299;27;20471;-72
2023/09/13 00:46:38;;;;;;;4.57;2.78;;;;;;;;;;5009220;28;20030;-72
2023/09/13 00:49:04;;;;;;;7.53;3.45;;;;;;;;;;5010737;28;20033;-72
2023/09/13 00:51:30;;;;;;;3.90;2.38;;;;;;;;;;5007186;28;20070;-73
2023/09/13 00:53:57;;;;;;;4.35;2.83;;;;;;;;;;5009424;28;20175;-73
2023/09/13 00:56:23;;;;;;;7.72;3.20;;;;;;;;;;5009969;28;20045;-73
2023/09/13 00:58:51;;;;;;;4.82;3.08;;;;;;;;;;5009953;28;20037;-73
2023/09/13 01:01:17;;;;;;;4.10;2.58;;;;;;;;;;5009594;28;20041;-73
2023/09/13 01:03:43;;;;;;;5.28;3.00;;;;;;;;;;4993732;28;20067;-73
2023/09/13 01:06:10;;;;;;;5.68;3.15;;;;;;;;;;5008944;28;20054;-73
2023/09/13 01:08:41;;;;;;;7.53;2.90;;;;;;;;;;5066397;28;20031;-73
2023/09/13 01:11:10;;;;;;;8.13;2.97;;;;;;;;;;5112344;28;20393;-73
2023/09/13 01:13:36;;;;;;;11.50;3.47;;;;;;;;;;5057747;28;20387;-74
2023/09/13 01:16:14;;;;;;;7.50;3.38;;;;;;;;;;5009011;28;20551;-74
2023/09/13 01:19:26;;;;;;;7.20;3.20;;;;;;;;;;5008414;28;20491;-73
2023/09/13 01:22:05;;;;;;;8.52;2.80;;;;;;;;;;5032558;28;20094;-72
2023/09/13 01:25:16;;;;;;;5.22;2.40;;;;;;;;;;5008958;28;20034;-73
2023/09/13 01:28:20;;;;;;;4.82;2.65;;;;;;;;;;5009095;28;20037;-73
2023/09/13 01:30:46;;;;;;;;;;;;;;;;;;5009297;28;20040;-72
2023/09/13 01:33:12;;;;;;;5.47;2.45;;;;;;;;;;5010038;28;19909;-72
2023/09/13 01:35:37;;;;;;;5.88;2.50;;;;;;;;;;5008431;28;20071;-72
2023/09/13 01:38:04;;;;;;;5.45;2.63;;;;;;;;;;5010069;28;20026;-72
2023/09/13 01:40:35;;;;;;;4.13;2.40;;;;;;;;;;5009781;28;20037;-72
2023/09/13 01:43:03;;;;;;;5.47;2.88;;;;;;;;;;5008887;28;20042;-73
2023/09/13 01:45:42;;;;;;;8.20;2.53;;;;;;;;;;5008902;28;20033;-73
2023/09/13 01:48:10;;;;;;;8.88;2.60;;;;;;;;;;5008591;28;20556;-73
2023/09/13 01:50:39;;;;;;;12.48;3.20;;;;;;;;;;5010212;28;20069;-73
2023/09/13 01:53:05;;;;;;;5.30;2.20;;;;;;;;;;5008436;28;20045;-73
2023/09/13 01:55:35;;;;;;;7.45;2.50;;;;;;;;;;5008613;28;20026;-73
2023/09/13 01:58:02;;;;;;;7.22;2.67;;;;;;;;;;5008314;28;20151;-73
2023/09/13 02:00:27;;;;;;;8.02;2.75;;;;;;;;;;4991883;28;20470;-74
2023/09/13 02:02:53;;;;;;;5.13;2.42;;;;;;;;;;5008181;28;20037;-73
2023/09/13 02:05:20;;;;;;;9.95;2.70;;;;;;;;;;5009766;28;20045;-72
2023/09/13 02:07:47;;;;;;;7.72;2.47;;;;;;;;;;5009672;28;20495;-73
2023/09/13 02:10:13;;;;;;;7.35;2.45;;;;;;;;;;5007997;28;20026;-73
2023/09/13 02:12:38;;;;;;;10.20;2.50;;;;;;;;;;5008172;28;20042;-73
2023/09/13 02:15:05;;;;;;;3.50;2.20;;;;;;;;;;5008377;28;20664;-72
2023/09/13 02:17:32;;;;;;;4.55;2.25;;;;;;;;;;5008139;28;20421;-73
2023/09/13 02:19:57;;;;;;;5.38;3.03;;;;;;;;;;5009245;28;20026;-73
2023/09/13 02:22:23;;;;;;;7.93;2.70;;;;;;;;;;5008164;28;20037;-73
2023/09/13 02:24:49;;;;;;;8.82;2.50;;;;;;;;;;5009705;28;20025;-72
2023/09/13 02:27:14;;;;;;;10.70;3.00;;;;;;;;;;5034120;28;20047;-73
2023/09/13 02:29:40;;;;;;;11.02;2.90;;;;;;;;;;5007772;28;20037;-73
2023/09/13 02:32:06;;;;;;;9.20;3.00;;;;;;;;;;5006905;28;20380;-72
2023/09/13 02:34:32;;;;;;;6.57;2.45;;;;;;;;;;4981213;28;20026;-73
2023/09/13 02:36:58;;;;;;;6.57;2.67;;;;;;;;;;4994336;28;20034;-73
2023/09/13 02:39:39;;;;;;;6.97;2.63;;;;;;;;;;5007862;28;20501;-73
2023/09/13 02:42:06;;;;;;;9.32;2.50;;;;;;;;;;5007782;28;20038;-72
2023/09/13 02:44:34;;;;;;;5.03;2.80;;;;;;;;;;4991558;28;20036;-72
2023/09/13 02:47:01;;;;;;;3.83;2.55;;;;;;;;;;5007714;28;20114;-73
2023/09/13 02:49:27;;;;;;;5.28;2.80;;;;;;;;;;5007618;28;20083;-73
2023/09/13 02:51:54;;;;;;;7.78;2.67;;;;;;;;;;5008795;28;20483;-73
2023/09/13 02:54:20;;;;;;;7.00;3.08;;;;;;;;;;5008707;28;20193;-73
2023/09/13 02:56:49;;;;;;;5.72;2.67;;;;;;;;;;5007655;28;20038;-73
2023/09/13 02:59:15;;;;;;;8.38;3.10;;;;;;;;;;5007519;28;20029;-72
2023/09/13 03:01:44;;;;;;;13.65;3.38;;;;;;;;;;5006865;28;20452;-73
2023/09/13 03:04:11;;;;;;;4.25;2.53;;;;;;;;;;5007354;28;20029;-73
2023/09/13 03:06:39;;;;;;;4.25;2.40;;;;;;;;;;5007360;28;20033;-73
2023/09/13 03:09:05;;;;;;;7.03;2.60;;;;;;;;;;5007181;28;20026;-73
2023/09/13 03:11:31;;;;;;;5.70;2.42;;;;;;;;;;5007156;28;20042;-72
2023/09/13 03:13:57;;;;;;;9.32;3.20;;;;;;;;;;5007021;28;20475;-73
2023/09/13 03:16:23;;;;;;;7.78;3.33;;;;;;;;;;5007221;28;20398;-73
2023/09/13 03:18:51;;;;;;;13.68;3.67;;;;;;;;;;5007287;28;20061;-73
2023/09/13 03:21:21;;;;;;;8.02;3.00;;;;;;;;;;5003702;28;20115;-73
2023/09/13 03:23:48;;;;;;;13.82;3.75;;;;;;;;;;5004048;28;20449;-73
2023/09/13 03:26:17;;;;;;;19.23;4.40;;;;;;;;;;4987856;28;20488;-73
2023/09/13 03:28:48;;;;;;;24.95;5.93;;;;;;;;;;5026093;28;20538;-72
2023/09/13 03:31:17;;;;;;;15.15;3.60;;;;;;;;;;5008448;28;20046;-74
2023/09/13 03:33:45;;;;;;;9.60;3.17;;;;;;;;;;5006729;28;20041;-73
2023/09/13 03:36:13;;;;;;;15.00;3.60;;;;;;;;;;5006904;28;20078;-72
2023/09/13 03:38:43;;;;;;;28.30;5.07;;;;;;;;;;5007010;28;20052;-74
2023/09/13 03:41:12;;;;;;;11.60;3.60;;;;;;;;;;5006739;28;20149;-73
2023/09/13 03:43:38;;;;;;;9.13;3.17;;;;;;;;;;5009900;28;20037;-72
2023/09/13 03:46:05;;;;;;;19.70;3.92;;;;;;;;;;5011524;28;20034;-73
2023/09/13 03:48:34;;;;;;;20.33;5.13;;;;;;;;;;5011215;28;20026;-73
2023/09/13 03:51:01;;;;;;;10.50;3.50;;;;;;;;;;5013499;28;20499;-75
2023/09/13 03:53:27;;;;;;;32.85;5.55;;;;;;;;;;5030158;28;20045;-74
2023/09/13 03:55:56;;;;;;;16.30;3.80;;;;;;;;;;5029679;28;20037;-73
2023/09/13 03:58:23;;;;;;;11.50;4.25;;;;;;;;;;5029755;28;20033;-73
2023/09/13 04:00:49;;;;;;;12.98;3.90;;;;;;;;;;5029594;28;20040;-74
2023/09/13 04:03:16;;;;;;;14.23;4.25;;;;;;;;;;5030715;28;20033;-74
2023/09/13 04:05:42;;;;;;;28.40;5.15;;;;;;;;;;5027508;28;20037;-74
2023/09/13 04:08:08;;;;;;;25.90;5.07;;;;;;;;;;5009555;28;20121;-74
2023/09/13 04:10:34;;;;;;;14.73;4.68;;;;;;;;;;5009344;28;20472;-72
2023/09/13 04:13:00;;;;;;;6.82;3.58;;;;;;;;;;5009850;28;20033;-73
2023/09/13 04:15:25;;;;;;;10.88;3.47;;;;;;;;;;5008651;28;20129;-75
2023/09/13 04:17:52;;;;;;;7.90;3.45;;;;;;;;;;5015495;28;20029;-73
2023/09/13 04:20:19;;;;;;;10.77;3.05;;;;;;;;;;5011313;28;20406;-74
2023/09/13 04:22:46;;;;;;;11.20;4.18;;;;;;;;;;4995209;28;20183;-73
2023/09/13 04:25:13;;;;;;;29.48;4.97;;;;;;;;;;5010695;28;20030;-74
2023/09/13 04:27:46;;;;;;;9.18;3.20;;;;;;;;;;5009666;28;20032;-76
2023/09/13 04:30:14;;;;;;;20.77;4.40;;;;;;;;;;5009067;28;20034;-74
2023/09/13 04:32:41;;;;;;;14.20;4.22;;;;;;;;;;5009074;28;20026;-75
2023/09/13 04:35:11;;;;;;;14.95;3.25;;;;;;;;;;5010453;28;20032;-73
2023/09/13 04:37:39;;;;;;;13.90;3.85;;;;;;;;;;4991209;28;20038;-74
2023/09/13 04:40:06;;;;;;;13.50;3.78;;;;;;;;;;4993149;28;20026;-76
2023/09/13 04:42:40;;;;;;;19.45;4.80;;;;;;;;;;5006106;28;20067;-75
2023/09/13 04:45:07;;;;;;;17.75;4.57;;;;;;;;;;5035006;28;20537;-75
2023/09/13 04:47:32;;;;;;;12.30;3.60;;;;;;;;;;5009480;28;20444;-75
2023/09/13 04:49:59;;;;;;;7.85;3.22;;;;;;;;;;5001052;28;20094;-77
2023/09/13 04:52:24;;;;;;;16.63;4.50;;;;;;;;;;5010234;28;20026;-75
2023/09/13 04:54:50;;;;;;;19.48;4.00;;;;;;;;;;5008159;28;20106;-75
2023/09/13 04:57:16;;;;;;;19.15;4.95;;;;;;;;;;5008759;28;20436;-74
2023/09/13 04:59:48;;;;;;;26.30;4.25;;;;;;;;;;5008530;28;20535;-74
2023/09/13 05:02:14;;;;;;;16.70;3.83;;;;;;;;;;5023810;28;20380;-73
2023/09/13 05:04:42;;;;;;;13.60;3.53;;;;;;;;;;5008609;28;20070;-75
2023/09/13 05:07:08;;;;;;;9.48;2.95;;;;;;;;;;5009616;28;20104;-74
2023/09/13 05:09:37;;;;;;;8.80;3.30;;;;;;;;;;5009937;28;20307;-74
2023/09/13 05:12:03;;;;;;;18.65;3.35;;;;;;;;;;5006825;28;20105;-74
2023/09/13 05:14:29;;;;;;;10.65;3.60;;;;;;;;;;5007849;28;20045;-73
2023/09/13 05:16:56;;;;;;;15.25;3.25;;;;;;;;;;5009030;28;20038;-74
2023/09/13 05:19:22;;;;;;;12.32;3.60;;;;;;;;;;5009358;28;20257;-74
2023/09/13 05:21:48;;;;;;;13.77;3.90;;;;;;;;;;5025076;28;20049;-75
2023/09/13 05:24:13;;;;;;;9.00;3.95;;;;;;;;;;5008550;28;20360;-74
2023/09/13 05:26:39;;;;;;;18.90;4.68;;;;;;;;;;5009139;28;20069;-73
2023/09/13 05:29:07;;;;;;;14.27;4.05;;;;;;;;;;5007841;28;20034;-74
2023/09/13 05:31:33;;;;;;;13.65;4.30;;;;;;;;;;5009126;28;20029;-74
2023/09/13 05:33:58;;;;;;;7.93;3.10;;;;;;;;;;5008128;28;20069;-73
2023/09/13 05:36:24;;;;;;;11.15;4.00;;;;;;;;;;5024510;28;20443;-74
2023/09/13 05:38:50;;;;;;;12.68;3.28;;;;;;;;;;5007695;28;20247;-75
2023/09/13 05:41:18;;;;;;;19.33;4.20;;;;;;;;;;5009020;28;20103;-76
2023/09/13 05:43:44;;;;;;;13.68;4.07;;;;;;;;;;5008988;28;20157;-75
2023/09/13 05:46:10;;;;;;;10.95;3.42;;;;;;;;;;5007635;28;20030;-75
2023/09/13 05:48:37;;;;;;;14.18;3.53;;;;;;;;;;5009033;28;20042;-75
2023/09/13 05:51:04;;;;;;;14.65;4.82;;;;;;;;;;5002332;28;20050;-76
2023/09/13 05:53:31;;;;;;;14.32;3.70;;;;;;;;;;5009151;28;20086;-76
2023/09/13 05:55:56;;;;;;;14.90;4.32;;;;;;;;;;5009039;28;20041;-76
2023/09/13 05:58:23;;;;;;;18.08;5.05;;;;;;;;;;5008444;28;20021;-76
2023/09/13 06:00:50;;;;;;;10.05;3.83;;;;;;;;;;5006939;28;20399;-75
2023/09/13 06:03:19;;;;;;;18.35;4.18;;;;;;;;;;5007490;28;20028;-75
2023/09/13 06:05:50;;;;;;;29.60;4.93;;;;;;;;;;5008629;28;20041;-74
2023/09/13 06:08:20;;;;;;;14.80;4.22;;;;;;;;;;5023593;28;20053;-74
2023/09/13 06:10:46;;;;;;;20.25;4.22;;;;;;;;;;5008768;28;20182;-75
2023/09/13 06:13:12;;;;;;;10.40;3.50;;;;;;;;;;5008711;28;20506;-75
2023/09/13 06:15:38;;;;;;;10.18;3.53;;;;;;;;;;5008891;28;20026;-75
2023/09/13 06:18:04;;;;;;;14.88;4.63;;;;;;;;;;5024949;28;20024;-75
2023/09/13 06:20:30;;;;;;;11.65;3.50;;;;;;;;;;5008282;28;20044;-75
2023/09/13 06:22:56;;;;;;;20.80;5.47;;;;;;;;;;5008353;28;20211;-75
2023/09/13 06:25:22;;;;;;;10.75;4.70;;;;;;;;;;5008299;28;20117;-74
2023/09/13 06:27:47;;;;;;;12.30;4.32;;;;;;;;;;5008538;28;20014;-74
2023/09/13 06:30:14;;;;;;;14.88;4.00;;;;;;;;;;5008312;28;20034;-75
2023/09/13 06:32:41;;;;;;;9.13;4.20;;;;;;;;;;5008970;28;20079;-74
2023/09/13 06:35:13;;;;;;;7.03;4.03;;;;;;;;;;5000989;28;20094;-75
2023/09/13 06:37:40;;;;;;;10.98;3.90;;;;;;;;;;5008957;28;20443;-75
2023/09/13 06:40:07;;;;;;;8.27;3.63;;;;;;;;;;5008960;28;20025;-76
2023/09/13 06:42:33;;;;;;;8.63;3.60;;;;;;;;;;5009590;28;20076;-74
2023/09/13 06:44:59;;;;;;;7.10;4.05;;;;;;;;;;4991300;28;20049;-76
2023/09/13 06:47:28;;;;;;;8.73;4.10;;;;;;;;;;5008309;28;20038;-75
2023/09/13 06:49:55;;;;;;;10.43;4.20;;;;;;;;;;5007587;28;20090;-73
2023/09/13 06:52:21;;;;;;;7.10;3.50;;;;;;;;;;5008040;28;20105;-69
2023/09/13 06:54:47;;;;;;;10.80;4.43;;;;;;;;;;5008091;28;20026;-70
2023/09/13 06:57:13;;;;;;;7.80;3.97;;;;;;;;;;5008428;28;20030;-71
2023/09/13 06:59:39;;;;;;;13.68;4.70;;;;;;;;;;5008269;28;20062;-71
2023/09/13 07:02:05;;;;;;;13.70;4.53;;;;;;;;;;5008458;28;20034;-72
2023/09/13 07:04:31;;;;;;;11.57;4.35;;;;;;;;;;5008284;28;20025;-70
2023/09/13 07:06:57;;;;;;;15.43;4.53;;;;;;;;;;5008449;28;20034;-71
2023/09/13 07:09:23;;;;;;;9.60;4.40;;;;;;;;;;5008373;28;20212;-72
2023/09/13 07:11:49;;;;;;;13.35;4.25;;;;;;;;;;5006800;28;20113;-71
2023/09/13 07:14:14;;;;;;;8.50;4.10;;;;;;;;;;5008537;28;20560;-70
2023/09/13 07:16:42;;;;;;;20.48;5.13;;;;;;;;;;5008310;28;20075;-71
2023/09/13 07:19:07;;;;;;;6.68;3.97;;;;;;;;;;5007379;28;20430;-72
2023/09/13 07:21:34;;;;;;;6.80;4.28;;;;;;;;;;5008336;28;20038;-72
2023/09/13 07:24:00;;;;;;;12.25;4.35;;;;;;;;;;5008115;28;20022;-72
2023/09/13 07:26:26;;;;;;;13.60;4.50;;;;;;;;;;5032901;28;20038;-70
2023/09/13 07:28:51;;;;;;;12.95;4.13;;;;;;;;;;5008127;28;20057;-70
2023/09/13 07:31:17;;;;;;;11.38;4.13;;;;;;;;;;5007736;28;20046;-70
2023/09/13 07:33:43;;;;;;;10.38;3.90;;;;;;;;;;5007708;28;20124;-70
2023/09/13 07:36:08;;;;;;;9.30;3.42;;;;;;;;;;5008033;28;20029;-73
2023/09/13 07:38:37;;;;;;;8.45;4.15;;;;;;;;;;5007908;28;20082;-70
2023/09/13 07:41:03;;;;;;;15.32;4.40;;;;;;;;;;5007296;28;20117;-71
2023/09/13 07:43:29;;;;;;;14.43;4.28;;;;;;;;;;5007481;28;20030;-71
2023/09/13 07:45:55;;;;;;;13.75;4.45;;;;;;;;;;5007563;28;20034;-72
2023/09/13 07:48:23;;;;;;;18.23;4.45;;;;;;;;;;5007421;28;20120;-70
2023/09/13 07:50:48;;;;;;;15.13;5.32;;;;;;;;;;5007733;28;20085;-71
2023/09/13 07:53:14;;;;;;;19.27;5.43;;;;;;;;;;5005598;28;20086;-70
2023/09/13 07:55:40;;;;;;;9.10;5.38;;;;;;;;;;5006084;28;20068;-70
2023/09/13 07:58:07;;;;;;;10.32;5.00;;;;;;;;;;5007524;28;20509;-70
2023/09/13 08:00:34;;;;;;;17.25;5.43;;;;;;;;;;5007107;28;20406;-70
2023/09/13 08:03:01;;;;;;;21.08;5.68;;;;;;;;;;5007248;28;20037;-69
2023/09/13 08:05:27;;;;;;;13.75;5.18;;;;;;;;;;5007541;28;20406;-71
2023/09/13 08:07:53;;;;;;;10.85;4.78;;;;;;;;;;5006901;28;20612;-71
2023/09/13 08:10:21;;;;;;;21.23;5.68;;;;;;;;;;5007036;28;20037;-70
2023/09/13 08:12:48;;;;;;;10.35;4.47;;;;;;;;;;5007528;28;20116;-70
2023/09/13 08:15:13;;;;;;;10.93;4.60;;;;;;;;;;5007301;28;20482;-71
2023/09/13 08:17:40;;;;;;;9.60;4.05;;;;;;;;;;5007031;28;20030;-70
2023/09/13 08:20:08;;;;;;;8.57;3.95;;;;;;;;;;5006815;28;20034;-71
2023/09/13 08:22:36;;;;;;;7.10;3.67;;;;;;;;;;5006700;28;20507;-71
2023/09/13 08:25:04;;;;;;;11.48;4.22;;;;;;;;;;5007602;28;20030;-70
2023/09/13 08:27:30;;;;;;;13.00;4.10;;;;;;;;;;5007493;28;20034;-70
2023/09/13 08:29:56;;;;;;;18.13;4.50;;;;;;;;;;5007872;28;20038;-70
2023/09/13 08:32:22;;;;;;;11.38;4.32;;;;;;;;;;5010537;28;20379;-70
2023/09/13 08:34:49;;;;;;;8.10;3.60;;;;;;;;;;5010779;28;20034;-70
2023/09/13 08:37:15;;;;;;;8.35;4.20;;;;;;;;;;5025741;28;20073;-70
2023/09/13 08:39:41;;;;;;;11.93;4.75;;;;;;;;;;5010462;28;20064;-69
2023/09/13 08:42:09;;;;;;;12.48;3.67;;;;;;;;;;5010171;28;20538;-70
2023/09/13 08:44:37;;;;;;;18.13;4.55;;;;;;;;;;5010037;28;20038;-71
2023/09/13 08:47:05;;;;;;;9.90;4.20;;;;;;;;;;5010891;28;20081;-70
2023/09/13 08:49:35;;;;;;;17.05;4.00;;;;;;;;;;5010348;28;20392;-70
2023/09/13 08:52:02;;;;;;;6.00;3.88;;;;;;;;;;5010165;28;20120;-71
2023/09/13 08:54:29;;;;;;;14.52;4.70;;;;;;;;;;5010516;28;20030;-71
2023/09/13 08:56:56;;;;;;;20.20;5.18;;;;;;;;;;5010069;28;20048;-70
2023/09/13 08:59:21;;;;;;;8.13;4.13;;;;;;;;;;5010422;28;20076;-70
2023/09/13 09:01:49;;;;;;;7.97;4.13;;;;;;;;;;5010545;28;20057;-70
2023/09/13 09:04:19;;;;;;;19.02;4.72;;;;;;;;;;5009790;28;20077;-71
2023/09/13 09:06:46;;;;;;;8.23;3.78;;;;;;;;;;5009565;28;20064;-70
2023/09/13 09:09:13;;;;;;;6.13;3.45;;;;;;;;;;5009394;28;20030;-70
2023/09/13 09:11:43;;;;;;;9.45;3.53;;;;;;;;;;5009684;28;20479;-69
2023/09/13 09:14:11;;;;;;;15.70;5.93;;;;;;;;;;5010246;28;20029;-69
2023/09/13 09:16:39;;;;;;;7.13;3.53;;;;;;;;;;5010229;28;20026;-70
2023/09/13 09:19:06;;;;;;;11.75;3.60;;;;;;;;;;5010135;28;20026;-71
2023/09/13 09:21:35;;;;;;;9.50;3.47;;;;;;;;;;5024900;28;20037;-71
2023/09/13 09:24:01;;;;;;;7.65;3.42;;;;;;;;;;5009456;28;20073;-69
2023/09/13 09:26:27;;;;;;;12.07;4.05;;;;;;;;;;5009986;28;20466;-70
2023/09/13 09:28:53;;;;;;;5.50;3.25;;;;;;;;;;5010002;28;20080;-70
2023/09/13 09:31:25;;;;;;;11.20;4.45;;;;;;;;;;5009863;28;20026;-74
2023/09/13 09:34:03;;;;;;;7.20;3.42;;;;;;;;;;5010067;28;20086;-71
2023/09/13 09:36:34;;;;;;;6.20;3.50;;;;;;;;;;5009426;28;20060;-71
2023/09/13 09:39:04;;;;;;;13.20;4.00;;;;;;;;;;5009774;28;20071;-70
2023/09/13 09:41:37;;;;;;;14.13;4.00;;;;;;;;;;5009266;28;20022;-71
2023/09/13 09:44:03;;;;;;;14.25;3.80;;;;;;;;;;5011314;28;20442;-74
2023/09/13 09:46:33;;;;;;;10.77;3.50;;;;;;;;;;5010241;28;20104;-70
2023/09/13 09:49:00;;;;;;;9.82;3.88;;;;;;;;;;5009381;28;20044;-70
2023/09/13 09:51:26;;;;;;;9.23;3.75;;;;;;;;;;5008129;28;20025;-71
2023/09/13 09:53:52;;;;;;;7.80;3.30;;;;;;;;;;5009439;28;20374;-70
2023/09/13 09:56:20;;;;;;;5.70;3.22;;;;;;;;;;5008018;28;20059;-70
2023/09/13 09:58:48;;;;;;;5.25;3.40;;;;;;;;;;5009402;28;20046;-71
2023/09/13 10:01:16;;;;;;;9.32;3.40;;;;;;;;;;5007641;28;20026;-70
2023/09/13 10:03:43;;;;;;;9.75;3.70;;;;;;;;;;5008951;28;20030;-71
2023/09/13 10:06:10;;;;;;;8.25;3.45;;;;;;;;;;5009573;28;20045;-71
2023/09/13 10:08:37;;;;;;;10.60;3.85;;;;;;;;;;5009842;28;20052;-70
2023/09/13 10:11:02;;;;;;;9.57;3.60;;;;;;;;;;5007810;28;20026;-70
2023/09/13 10:13:32;;;;;;;9.90;3.28;;;;;;;;;;5008189;28;20033;-71
2023/09/13 10:16:00;;;;;;;5.82;2.88;;;;;;;;;;5008587;28;20129;-70
2023/09/13 10:18:27;;;;;;;8.50;3.03;;;;;;;;;;5009039;28;20037;-71
2023/09/13 10:20:56;;;;;;;4.57;2.75;;;;;;;;;;5008714;28;20380;-71
2023/09/13 10:23:28;;;;;;;4.68;2.70;;;;;;;;;;5024479;28;20068;-73
2023/09/13 10:25:58;;;;;;;8.80;2.95;;;;;;;;;;5009301;28;20041;-70
2023/09/13 10:28:30;;;;;;;5.43;2.63;;;;;;;;;;5023187;28;20053;-72
2023/09/13 10:31:01;;;;;;;10.48;3.00;;;;;;;;;;5009473;28;20038;-71
2023/09/13 10:33:32;;;;;;;6.80;2.65;;;;;;;;;;5007496;28;20083;-71
2023/09/13 10:36:00;;;;;;;4.28;2.70;;;;;;;;;;5009003;28;20049;-71
2023/09/13 10:38:37;;;;;;;5.10;2.40;;;;;;;;;;5008247;28;20026;-71
2023/09/13 10:41:13;;;;;;;10.18;2.90;;;;;;;;;;5008219;28;20077;-71
2023/09/13 10:43:41;;;;;;;3.90;2.22;;;;;;;;;;5009003;28;20109;-72
2023/09/13 10:46:08;;;;;;;4.82;2.30;;;;;;;;;;5008290;28;20022;-72
2023/09/13 10:48:35;;;;;;;5.85;2.53;;;;;;;;;;5009370;28;20167;-72
2023/09/13 10:51:02;;;;;;;11.65;3.33;;;;;;;;;;5008186;28;20026;-72
2023/09/13 10:53:28;;;;;;;7.97;3.20;;;;;;;;;;5006971;28;20441;-71
2023/09/13 10:55:54;;;;;;;8.35;2.58;;;;;;;;;;5009154;28;20026;-71
2023/09/13 10:58:22;;;;;;;9.38;3.25;;;;;;;;;;5009465;28;20033;-71
2023/09/13 11:00:54;;;;;;;9.63;2.88;;;;;;;;;;5009113;28;20048;-72
2023/09/13 11:03:21;;;;;;;7.10;2.30;;;;;;;;;;5008744;28;20044;-71
2023/09/13 11:05:51;;;;;;;5.53;2.65;;;;;;;;;;5023850;28;20083;-71
2023/09/13 11:08:34;;;;;;;3.75;2.42;;;;;;;;;;5076136;28;20086;-72
2023/09/13 11:11:17;;;;;;;3.92;2.70;;;;;;;;;;5009072;28;20046;-72
2023/09/13 11:13:50;;;;;;;5.22;2.72;;;;;;;;;;5007521;28;20034;-71
2023/09/13 11:16:17;;;;;;;9.48;2.92;;;;;;;;;;5008623;28;20042;-71
2023/09/13 11:18:49;;;;;;;8.70;3.35;;;;;;;;;;5008567;28;20048;-70
2023/09/13 11:21:26;;;;;;;7.65;2.42;;;;;;;;;;5008618;28;20358;-71
2023/09/13 11:23:54;;;;;;;8.30;3.00;;;;;;;;;;5008815;28;20058;-71
2023/09/13 11:26:45;;;;;;;11.57;3.00;;;;;;;;;;5008803;28;20061;-71
2023/09/13 11:29:24;;;;;;;6.97;2.72;;;;;;;;;;5008597;28;20042;-70
2023/09/13 11:32:01;;;;;;;9.95;4.15;;;;;;;;;;5009002;28;20029;-72
2023/09/13 11:34:29;;;;;;;11.93;2.85;;;;;;;;;;5008524;28;20034;-70
2023/09/13 11:37:00;;;;;;;11.98;2.97;;;;;;;;;;5008420;28;20040;-71
2023/09/13 11:39:27;;;;;;;7.60;2.63;;;;;;;;;;5008673;28;20479;-71
2023/09/13 11:41:55;;;;;;;4.30;2.58;;;;;;;;;;5023579;28;20036;-71
2023/09/13 11:44:24;;;;;;;11.35;3.15;;;;;;;;;;5007298;28;20111;-70
2023/09/13 11:46:50;;;;;;;6.05;2.63;;;;;;;;;;5008668;28;20034;-70
2023/09/13 11:49:24;;;;;;;7.65;2.88;;;;;;;;;;5008387;28;20038;-70
2023/09/13 11:51:58;;;;;;;7.63;2.75;;;;;;;;;;5008303;28;20041;-71
2023/09/13 11:54:26;;;;;;;10.57;3.30;;;;;;;;;;5008157;28;20501;-70
2023/09/13 11:56:53;;;;;;;10.77;3.20;;;;;;;;;;5007974;28;20113;-71
2023/09/13 11:59:31;;;;;;;12.40;3.03;;;;;;;;;;5008343;28;20057;-70
2023/09/13 12:01:57;;;;;;;10.57;2.70;;;;;;;;;;5008431;28;20042;-71
2023/09/13 12:04:26;;;;;;;10.13;2.67;;;;;;;;;;5010903;28;20068;-71
2023/09/13 12:06:57;;;;;;;7.93;2.85;;;;;;;;;;5011957;28;20395;-70
2023/09/13 12:09:23;;;;;;;11.68;3.03;;;;;;;;;;5011852;28;20046;-71
2023/09/13 12:11:51;;;;;;;8.07;3.05;;;;;;;;;;5011909;28;20037;-72
2023/09/13 12:14:18;;;;;;;5.95;2.60;;;;;;;;;;5011259;28;20437;-72
2023/09/13 12:16:49;;;;;;;10.98;3.53;;;;;;;;;;5010997;28;20037;-72
2023/09/13 12:19:16;;;;;;;5.32;2.40;;;;;;;;;;5011799;28;20069;-70
2023/09/13 12:21:45;;;;;;;9.80;3.05;;;;;;;;;;5087427;28;20038;-71
2023/09/13 12:24:13;;;;;;;13.60;3.55;;;;;;;;;;5012194;28;20022;-71
2023/09/13 12:26:40;;;;;;;5.20;2.35;;;;;;;;;;5011001;28;20120;-69
2023/09/13 12:29:06;;;;;;;6.82;2.55;;;;;;;;;;5005283;28;20041;-70
2023/09/13 12:31:32;;;;;;;9.13;2.75;;;;;;;;;;5009737;28;20029;-70
2023/09/13 12:33:59;;;;;;;4.70;2.33;;;;;;;;;;5003172;28;20156;-71
2023/09/13 12:36:25;;;;;;;5.75;3.33;;;;;;;;;;5005433;28;20062;-71
2023/09/13 12:38:52;;;;;;;7.10;2.60;;;;;;;;;;5010972;28;20026;-71
2023/09/13 12:41:28;;;;;;;9.05;3.00;;;;;;;;;;5011199;28;20026;-70
2023/09/13 12:43:54;;;;;;;4.72;2.65;;;;;;;;;;5010953;28;20033;-71
2023/09/13 12:46:22;;;;;;;6.65;2.45;;;;;;;;;;5011254;28;20029;-70
2023/09/13 12:48:51;;;;;;;9.38;3.60;;;;;;;;;;5011122;28;20033;-71
2023/09/13 12:51:20;;;;;;;7.03;2.20;;;;;;;;;;5011220;28;20026;-70
2023/09/13 12:53:46;;;;;;;9.43;2.45;;;;;;;;;;5011050;28;20406;-71
2023/09/13 12:56:13;;;;;;;6.20;2.33;;;;;;;;;;5011993;28;20025;-71
2023/09/13 12:58:48;;;;;;;10.40;2.80;;;;;;;;;;5011792;28;20384;-71
2023/09/13 13:01:14;;;;;;;5.80;2.20;;;;;;;;;;5011861;28;20090;-71
2023/09/13 13:03:55;;;;;;;5.95;2.28;;;;;;;;;;5011551;28;20026;-70
2023/09/13 13:06:21;;;;;;;5.55;2.00;;;;;;;;;;5010644;28;20491;-70
2023/09/13 13:08:48;;;;;;;3.35;2.10;;;;;;;;;;5010741;28;20036;-70
2023/09/13 13:11:14;;;;;;;6.95;2.00;;;;;;;;;;5010619;28;20037;-71
2023/09/13 13:13:40;;;;;;;3.97;2.00;;;;;;;;;;5010181;28;20014;-70
2023/09/13 13:16:17;;;;;;;7.40;1.90;;;;;;;;;;5009974;28;20091;-72
2023/09/13 13:18:51;;;;;;;5.75;1.90;;;;;;;;;;5010627;28;20536;-70
2023/09/13 13:21:22;;;;;;;8.43;2.63;;;;;;;;;;5010603;28;20037;-70
2023/09/13 13:23:49;;;;;;;9.02;2.25;;;;;;;;;;5010634;28;20085;-72
2023/09/13 13:26:17;;;;;;;4.80;1.90;;;;;;;;;;5011911;28;20018;-71
2023/09/13 13:28:44;;;;;;;5.20;1.90;;;;;;;;;;5011662;28;20022;-71
2023/09/13 13:31:09;;;;;;;5.15;2.30;;;;;;;;;;5009139;28;20421;-71
2023/09/13 13:33:36;;;;;;;6.20;1.90;;;;;;;;;;5009090;28;20037;-72
2023/09/13 13:36:06;;;;;;;5.72;2.25;;;;;;;;;;5025361;28;20033;-69
2023/09/13 13:38:34;;;;;;;5.40;1.80;;;;;;;;;;5010625;28;20037;-70
2023/09/13 13:41:10;;;;;;;6.88;1.95;;;;;;;;;;5010018;28;20045;-72
2023/09/13 13:43:37;;;;;;;7.00;1.90;;;;;;;;;;5025032;28;20061;-72
2023/09/13 13:46:04;;;;;;;5.55;2.13;;;;;;;;;;5002065;28;20022;-71
2023/09/13 13:48:32;;;;;;;13.65;2.95;;;;;;;;;;5010152;28;20448;-70
2023/09/13 13:50:58;;;;;;;5.72;2.00;;;;;;;;;;5010053;28;20022;-71
2023/09/13 13:53:26;;;;;;;5.15;1.63;;;;;;;;;;5009675;28;20116;-71
2023/09/13 13:55:54;;;;;;;8.93;2.70;;;;;;;;;;5010183;28;20083;-70
2023/09/13 13:58:20;;;;;;;3.38;1.92;;;;;;;;;;5010111;28;20054;-71
2023/09/13 14:00:46;;;;;;;3.90;1.80;;;;;;;;;;5009467;28;20022;-71
2023/09/13 14:03:12;;;;;;;8.82;2.42;;;;;;;;;;5007871;28;20113;-73
2023/09/13 14:05:40;;;;;;;5.90;2.15;;;;;;;;;;5009651;28;20104;-73
2023/09/13 14:08:08;;;;;;;5.03;1.83;;;;;;;;;;4992442;28;20033;-71
2023/09/13 14:10:39;;;;;;;5.18;1.80;;;;;;;;;;5007630;28;20026;-71
2023/09/13 14:13:06;;;;;;;5.05;1.77;;;;;;;;;;5009363;28;20049;-71
2023/09/13 14:15:32;;;;;;;4.97;1.70;;;;;;;;;;5008938;28;20029;-71
2023/09/13 14:17:58;;;;;;;6.68;1.90;;;;;;;;;;5009650;28;20121;-72
2023/09/13 14:20:23;;;;;;;6.43;1.98;;;;;;;;;;5009206;28;20109;-70
2023/09/13 14:22:49;;;;;;;7.03;2.35;;;;;;;;;;5009639;28;20049;-72
2023/09/13 14:25:15;;;;;;;4.07;1.80;;;;;;;;;;5009347;28;20475;-72
2023/09/13 14:27:42;;;;;;;3.90;1.67;;;;;;;;;;5007367;28;20046;-72
2023/09/13 14:30:08;;;;;;;6.60;1.98;;;;;;;;;;5022560;28;20112;-72
2023/09/13 14:32:33;;;;;;;4.63;1.70;;;;;;;;;;5008974;28;20036;-71
2023/09/13 14:34:59;;;;;;;3.58;1.80;;;;;;;;;;5008941;28;20026;-71
2023/09/13 14:37:26;;;;;;;8.02;1.80;;;;;;;;;;5008848;28;20034;-72
2023/09/13 14:39:52;;;;;;;4.80;1.77;;;;;;;;;;5006982;28;20491;-72
2023/09/13 14:42:19;;;;;;;6.70;2.10;;;;;;;;;;5007509;28;20040;-72